Open Full Screen Window  High Contrast Mode
Wind Gusting 00 knots
11
October 19, 2018 4:13 PM EDT
Weather Information
Wind Direction
  220 °
Wind Speed
  11 kt (13 mph)
Wind Gust
  00 kt (0 mph)
Altimeter
30.00 in
Visibility
10 SM
Temperature
14° C
57° F
Dewpoint
-01° C
30° F
Humidity
36%
1hr Rain Fall
00.00 in.
24hr Rain Fall
00.00 in.
Sky Condition
Broken @ 11,000 ft
VFR

METAR KMRT 192013Z AUTO 22011KT 10SM BKN110 14/M01 A3000 RMK AO2 T01401009

FAA Disclaimer: The data displayed is for advisory purposes only and is not to be used for flight planning or operations.